Time;durP1;ratioP1;P1;durP2;ratioP2;P2;SDS_P1;SDS_P2;PMS_P1;PMS_P2;Temp;Humidity;BMP_temperature;BMP_pressure;BME280_temperature;BME280_humidity;BME280_pressure;Samples;Min_cycle;Max_cycle;Signal;HPM_P1;HPM_P2
2022/01/14 00:01:19;;;;;;;17.65;13.82;;;3.60;99.90;;;3.14;100.00;103206.75;4152259;28;20044;-74
2022/01/14 00:03:19;;;;;;;14.85;13.10;;;3.20;99.90;;;3.03;100.00;103219.28;4150979;28;20026;-74
2022/01/14 00:05:20;;;;;;;14.77;10.95;;;4.70;99.90;;;2.99;100.00;103217.66;4147781;28;20042;-74
2022/01/14 00:07:22;;;;;;;16.50;13.20;;;3.20;99.90;;;3.00;100.00;103226.34;4134073;28;20688;-74
2022/01/14 00:09:24;;;;;;;15.48;12.68;;;3.60;99.90;;;3.00;100.00;103226.34;4165857;28;20029;-74
2022/01/14 00:11:25;;;;;;;13.65;11.68;;;3.20;99.90;;;3.05;100.00;103230.53;4161686;28;20105;-74
2022/01/14 00:15:45;;;;;;;17.77;13.75;;;3.50;99.90;;;3.06;100.00;103227.03;4154626;28;20036;-74
2022/01/14 00:17:46;;;;;;;15.95;12.63;;;3.20;99.90;;;3.15;100.00;103221.53;4150633;28;20029;-74
2022/01/14 00:19:47;;;;;;;13.85;11.65;;;3.60;99.90;;;2.92;100.00;103216.16;4151391;28;20022;-74
2022/01/14 00:21:48;;;;;;;14.13;10.98;;;3.30;99.90;;;2.97;100.00;103214.25;4161774;28;20112;-74
2022/01/14 00:23:52;;;;;;;18.75;12.73;;;3.30;99.90;;;2.93;100.00;103217.03;4150584;28;20076;-74
2022/01/14 00:34:53;;;;;;;14.60;12.27;;;3.00;99.90;;;2.66;100.00;103218.66;4160657;28;20442;-74
2022/01/14 00:36:54;;;;;;;15.10;11.90;;;3.50;99.90;;;2.75;100.00;103221.88;4167435;28;20029;-74
2022/01/14 00:38:55;;;;;;;17.17;12.75;;;2.90;99.90;;;2.74;100.00;103219.31;4151609;28;20037;-74
2022/01/14 00:40:56;;;;;;;17.42;13.27;;;3.70;99.90;;;2.71;100.00;103206.38;4151456;28;20390;-74
2022/01/14 00:42:57;;;;;;;17.58;14.07;;;5.00;99.90;;;2.67;100.00;103208.22;4166734;28;20036;-74
2022/01/14 00:44:58;;;;;;;18.30;13.85;;;2.80;99.90;;;2.71;100.00;103212.47;4167941;28;20041;-74
2022/01/14 00:47:03;;;;;;;18.98;12.88;;;3.10;99.90;;;2.54;100.00;103198.22;4166480;28;20037;-74
2022/01/14 00:49:04;;;;;;;19.30;13.57;;;3.80;99.90;;;2.51;100.00;103203.50;4166487;28;20026;-74
2022/01/14 00:51:05;;;;;;;19.25;14.18;;;3.00;99.90;;;2.57;100.00;103208.56;4153585;28;20108;-74
2022/01/14 00:53:06;;;;;;;17.30;13.18;;;2.90;99.90;;;2.63;100.00;103213.56;4150176;28;20540;-74
2022/01/14 00:55:12;;;;;;;18.27;14.18;;;3.10;99.90;;;2.71;100.00;103203.78;4150087;28;20030;-74
2022/01/14 00:57:26;;;;;;;20.00;15.05;;;3.20;99.90;;;2.80;100.00;103206.13;4150566;28;20037;-74
2022/01/14 00:59:27;;;;;;;18.50;14.35;;;2.70;99.90;;;2.80;100.00;103206.13;4166468;28;20033;-74
2022/01/14 01:01:28;;;;;;;19.13;14.93;;;2.80;99.90;;;2.61;100.00;103189.31;4166575;28;20036;-74
2022/01/14 01:03:29;;;;;;;19.08;14.23;;;3.10;99.90;;;2.64;100.00;103191.81;4199378;28;20131;-74
2022/01/14 01:05:30;;;;;;;20.08;14.50;;;3.10;99.90;;;2.54;100.00;103186.03;4168502;28;20033;-74
2022/01/14 01:07:31;;;;;;;19.10;14.40;;;3.10;99.90;;;2.50;100.00;103166.19;4171463;28;20054;-74
2022/01/14 01:09:33;;;;;;;17.83;12.98;;;2.90;99.90;;;2.53;100.00;103178.25;4149814;28;20030;-74
2022/01/14 01:11:37;;;;;;;22.48;15.82;;;3.20;99.90;;;2.67;100.00;103186.50;4150114;28;20026;-74
2022/01/14 01:13:43;;;;;;;22.98;15.50;;;3.50;99.90;;;2.71;100.00;103175.13;4152780;28;20029;-74
2022/01/14 01:15:45;;;;;;;19.67;15.00;;;3.30;99.90;;;2.74;100.00;103182.84;4159880;28;20072;-75
2022/01/14 01:17:47;;;;;;;22.73;17.58;;;1.90;99.90;;;2.79;100.00;103180.94;4143608;28;20034;-74
2022/01/14 01:19:48;;;;;;;22.35;15.23;;;4.00;99.90;;;2.77;100.00;103188.81;4162629;28;20167;-74
2022/01/14 01:21:49;;;;;;;22.60;16.40;;;3.20;99.90;;;2.82;100.00;103177.38;4140262;28;20068;-74
2022/01/14 01:23:50;;;;;;;21.20;14.90;;;3.70;99.90;;;2.71;100.00;103177.72;4167419;28;20053;-74
2022/01/14 01:25:58;;;;;;;18.25;14.30;;;3.10;99.90;;;2.68;100.00;103175.22;4165900;28;20034;-74
2022/01/14 01:27:59;;;;;;;20.58;15.48;;;3.10;99.90;;;2.64;100.00;103171.84;4167471;28;20034;-74
2022/01/14 01:30:13;;;;;;;20.00;13.98;;;3.50;99.90;;;2.65;100.00;103159.66;4167371;28;20052;-74
2022/01/14 01:32:14;;;;;;;17.58;13.10;;;3.10;99.90;;;2.65;100.00;103164.88;4167413;28;20029;-74
2022/01/14 01:34:22;;;;;;;19.17;14.30;;;3.00;99.90;;;2.65;100.00;103159.66;4166090;28;20029;-74
2022/01/14 01:36:23;;;;;;;24.63;17.20;;;3.00;99.90;;;2.70;100.00;103147.34;4149752;28;20132;-74
2022/01/14 01:38:24;;;;;;;21.67;14.85;;;3.60;99.90;;;2.67;100.00;103148.28;4149745;28;20528;-74
2022/01/14 01:40:27;;;;;;;20.20;15.05;;;2.90;99.90;;;2.61;100.00;103151.06;4165896;28;20485;-74
2022/01/14 01:42:30;;;;;;;25.25;17.02;;;4.60;99.90;;;2.54;100.00;103146.13;4167314;28;20037;-74
2022/01/14 01:44:32;;;;;;;22.50;15.10;;;3.00;99.90;;;2.41;100.00;103144.75;4166062;28;20072;-74
2022/01/14 01:46:37;;;;;;;24.50;16.98;;;2.90;99.90;;;2.35;100.00;103143.19;4168404;28;20072;-74
2022/01/14 01:48:38;;;;;;;23.83;17.75;;;2.80;99.90;;;2.40;100.00;103143.91;4169388;28;20130;-74
2022/01/14 01:50:39;;;;;;;23.30;16.98;;;3.10;99.90;;;2.34;100.00;103138.00;4156427;28;20096;-74
2022/01/14 01:52:40;;;;;;;22.27;16.48;;;3.40;99.90;;;2.38;100.00;103129.22;4156323;28;20469;-74
2022/01/14 01:54:41;;;;;;;23.80;16.42;;;3.70;99.90;;;2.43;100.00;103137.75;4170299;28;20025;-74
2022/01/14 01:56:43;;;;;;;24.60;17.55;;;2.90;99.90;;;2.49;100.00;103147.97;4169294;28;20556;-74
2022/01/14 01:58:44;;;;;;;21.02;15.35;;;2.80;99.90;;;2.48;100.00;103138.47;4169340;28;20033;-74
2022/01/14 02:00:45;;;;;;;21.38;15.90;;;2.80;99.90;;;2.48;100.00;103141.09;4179354;28;20041;-74
2022/01/14 02:02:48;;;;;;;23.33;15.70;;;3.70;99.90;;;2.40;100.00;103143.91;4153009;28;20557;-74
2022/01/14 02:04:49;;;;;;;25.42;16.75;;;2.00;99.90;;;2.29;100.00;103132.09;4152865;28;20421;-74
2022/01/14 02:06:54;;;;;;;23.35;15.80;;;2.70;99.90;;;2.32;100.00;103147.63;4153042;28;20434;-74
2022/01/14 02:08:54;;;;;;;25.90;16.20;;;3.40;99.90;;;2.22;100.00;103139.22;4169157;28;20113;-74
2022/01/14 02:10:56;;;;;;;22.90;16.33;;;2.30;99.90;;;2.13;100.00;103140.34;4176290;28;20424;-74
2022/01/14 02:12:57;;;;;;;24.23;17.13;;;2.40;99.90;;;1.99;100.00;103144.22;4164337;28;20053;-74
2022/01/14 02:15:14;;;;;;;28.05;19.48;;;2.50;99.90;;;2.06;100.00;103140.56;4149984;28;20034;-74
2022/01/14 02:17:30;;;;;;;27.77;18.35;;;2.40;99.90;;;2.06;100.00;103149.22;4170025;28;20083;-74
2022/01/14 02:19:43;;;;;;;23.10;16.73;;;2.50;99.90;;;2.08;100.00;103155.25;4169080;28;20064;-74
2022/01/14 02:22:11;;;;;;;29.38;18.50;;;3.20;99.90;;;2.27;100.00;103146.91;4166818;28;20029;-74
2022/01/14 02:26:21;;;;;;;27.13;19.00;;;3.80;99.90;;;2.29;100.00;103142.50;4152215;28;20072;-74
2022/01/14 02:28:22;;;;;;;26.77;18.88;;;2.70;99.90;;;2.22;100.00;103150.50;4152366;28;20030;-74
2022/01/14 02:30:24;;;;;;;26.58;19.55;;;2.10;99.90;;;2.07;100.00;103130.09;4153651;28;20034;-74
2022/01/14 02:32:25;;;;;;;28.27;19.75;;;3.60;99.90;;;2.07;100.00;103135.31;4176696;28;20052;-74
2022/01/14 02:34:27;;;;;;;29.88;20.23;;;2.60;99.90;;;2.04;100.00;103132.78;4155342;28;20030;-74
2022/01/14 02:36:31;;;;;;;29.52;19.27;;;2.50;99.90;;;1.97;100.00;103136.44;4152228;28;20037;-74
2022/01/14 02:38:33;;;;;;;29.30;18.88;;;3.00;99.90;;;1.88;100.00;103136.69;4152338;28;20037;-74
2022/01/14 02:40:34;;;;;;;25.60;16.92;;;2.50;99.90;;;1.82;100.00;103133.44;4152216;28;20259;-74
2022/01/14 02:42:35;;;;;;;27.75;19.23;;;2.40;99.90;;;1.93;100.00;103129.66;4152170;28;20080;-74
2022/01/14 02:44:37;;;;;;;25.25;17.65;;;2.50;99.90;;;1.95;100.00;103122.63;4157245;28;20029;-74
2022/01/14 02:46:49;;;;;;;25.73;17.63;;;2.50;99.90;;;2.03;100.00;103127.66;4168325;28;20026;-74
2022/01/14 02:48:50;;;;;;;30.35;18.90;;;2.40;99.90;;;2.03;100.00;103115.44;4153229;28;20030;-74
2022/01/14 02:50:59;;;;;;;24.52;16.70;;;2.40;99.90;;;2.08;100.00;103115.34;4184976;28;20559;-74
2022/01/14 02:53:01;;;;;;;28.42;18.20;;;2.40;99.90;;;2.06;100.00;103117.16;4163004;28;20049;-74
2022/01/14 02:55:14;;;;;;;25.92;17.42;;;1.60;99.90;;;2.03;100.00;103117.22;4151797;28;20029;-74
2022/01/14 02:57:15;;;;;;;28.67;18.30;;;2.40;99.90;;;1.89;100.00;103115.00;4151757;28;20108;-74
2022/01/14 02:59:17;;;;;;;27.75;18.42;;;2.50;99.90;;;1.88;100.00;103117.66;4176981;28;20030;-74
2022/01/14 03:01:25;;;;;;;34.83;19.65;;;2.30;99.90;;;1.90;100.00;103106.31;4153231;28;20464;-74
2022/01/14 03:03:30;;;;;;;26.73;17.83;;;2.50;99.90;;;1.89;100.00;103104.59;4179985;28;20052;-74
2022/01/14 03:05:31;;;;;;;28.02;18.52;;;2.70;99.90;;;1.93;100.00;103098.41;4184526;28;20039;-74
2022/01/14 03:07:33;;;;;;;30.38;19.20;;;2.00;99.90;;;1.83;100.00;103099.56;4167934;28;20042;-74
2022/01/14 03:09:35;;;;;;;29.58;20.05;;;4.10;99.90;;;1.95;100.00;103094.00;4169146;28;20389;-74
2022/01/14 03:11:53;;;;;;;30.50;20.17;;;3.80;99.90;;;1.99;100.00;103094.78;4168115;28;20116;-74
2022/01/14 03:13:54;;;;;;;30.83;19.05;;;2.30;99.90;;;1.82;100.00;103104.81;4152727;28;20026;-74
2022/01/14 03:15:55;;;;;;;34.28;21.77;;;2.40;99.90;;;1.82;100.00;103100.47;4176024;28;20564;-74
2022/01/14 03:17:56;;;;;;;29.88;19.85;;;1.50;99.90;;;1.89;100.00;103099.38;4151693;28;20037;-74
2022/01/14 03:20:00;;;;;;;28.92;20.23;;;2.40;99.90;;;1.86;100.00;103099.47;4166596;28;20036;-74
2022/01/14 03:22:25;;;;;;;25.17;17.35;;;3.00;99.90;;;1.99;100.00;103099.97;4162813;28;20037;-74
2022/01/14 03:26:36;;;;;;;32.13;21.25;;;2.90;99.90;;;1.92;100.00;103098.44;4169139;28;19959;-74
2022/01/14 03:28:37;;;;;;;30.08;19.67;;;2.60;99.90;;;1.98;100.00;103098.25;4167932;28;20053;-74
2022/01/14 03:30:38;;;;;;;34.75;22.02;;;2.50;99.90;;;1.97;100.00;103097.41;4167835;28;20425;-74
2022/01/14 03:32:40;;;;;;;31.90;20.27;;;2.60;99.90;;;2.03;100.00;103092.03;4151414;28;20051;-74
2022/01/14 03:34:41;;;;;;;38.88;23.98;;;2.60;99.90;;;2.13;100.00;103083.06;4167647;28;20131;-74
2022/01/14 03:36:42;;;;;;;34.85;21.75;;;2.70;99.90;;;2.21;100.00;103091.50;4167658;28;20056;-74
2022/01/14 03:38:43;;;;;;;39.42;22.33;;;2.50;99.90;;;2.24;100.00;103086.19;4169011;28;20044;-74
2022/01/14 03:40:44;;;;;;;31.48;20.35;;;4.00;99.90;;;2.01;100.00;103080.81;4167304;28;20026;-74
2022/01/14 03:42:45;;;;;;;33.83;22.38;;;2.90;99.90;;;1.97;100.00;103084.41;4168899;28;20120;-74
2022/01/14 03:44:46;;;;;;;32.83;22.23;;;2.70;99.90;;;1.83;100.00;103083.06;4174066;28;20028;-74
2022/01/14 03:46:47;;;;;;;33.40;22.08;;;2.60;99.90;;;1.93;100.00;103075.00;4165292;28;20030;-74
2022/01/14 03:48:48;;;;;;;38.17;21.50;;;2.70;99.90;;;1.93;100.00;103079.34;4180657;28;20029;-74
2022/01/14 03:50:50;;;;;;;30.80;20.48;;;2.60;99.90;;;1.89;100.00;103075.09;4166431;28;20085;-74
2022/01/14 03:52:50;;;;;;;37.63;23.52;;;2.50;99.90;;;1.85;100.00;103066.53;4167485;28;20076;-74
2022/01/14 03:54:51;;;;;;;37.63;23.08;;;4.00;99.90;;;1.88;100.00;103068.22;4168346;28;20447;-74
2022/01/14 03:56:52;;;;;;;34.65;22.60;;;3.30;99.90;;;1.76;100.00;103063.34;4167361;28;20034;-74
2022/01/14 03:58:54;;;;;;;40.55;23.52;;;3.00;99.90;;;1.84;100.00;103063.97;4168646;28;20397;-74
2022/01/14 04:00:55;;;;;;;37.50;22.08;;;2.00;99.90;;;1.74;100.00;103067.72;4183739;28;20873;-74
2022/01/14 04:02:56;;;;;;;35.72;22.00;;;5.30;99.90;;;1.60;100.00;103060.31;4167150;28;20124;-74
2022/01/14 04:04:57;;;;;;;35.55;21.67;;;2.50;99.90;;;1.52;100.00;103044.91;4177899;28;20480;-74
2022/01/14 04:06:58;;;;;;;34.85;22.98;;;2.50;99.90;;;1.39;100.00;103047.88;4169542;28;20110;-74
2022/01/14 04:08:59;;;;;;;38.80;23.95;;;2.60;99.90;;;1.38;100.00;103052.22;4168139;28;20061;-74
2022/01/14 04:11:02;;;;;;;34.05;22.38;;;4.30;99.90;;;1.45;100.00;103051.19;4166956;28;20032;-74
2022/01/14 04:13:11;;;;;;;36.72;23.70;;;2.30;99.90;;;1.51;100.00;103057.97;4178009;28;20033;-74
2022/01/14 04:17:32;;;;;;;40.55;23.27;;;3.00;99.90;;;1.47;100.00;103051.97;4166499;28;20041;-74
2022/01/14 04:19:33;;;;;;;39.08;23.73;;;2.30;99.90;;;1.41;100.00;103048.69;4172443;28;20033;-74
2022/01/14 04:21:34;;;;;;;39.35;24.88;;;2.10;99.90;;;1.46;100.00;103049.44;4166096;28;20033;-74
2022/01/14 04:23:36;;;;;;;42.22;25.20;;;2.30;99.90;;;1.63;100.00;103055.03;4138526;28;20025;-74
2022/01/14 04:25:37;;;;;;;35.33;22.98;;;2.40;99.90;;;1.78;100.00;103054.59;4150271;28;20524;-74
2022/01/14 04:27:38;;;;;;;33.90;21.73;;;0.60;99.90;;;1.74;100.00;103050.38;4199932;28;20032;-74
2022/01/14 04:29:39;;;;;;;42.60;24.63;;;3.30;99.90;;;1.69;100.00;103049.66;4166845;28;20029;-74
2022/01/14 04:31:40;;;;;;;34.97;22.63;;;2.50;99.90;;;1.78;100.00;103039.00;4168251;28;20029;-74
2022/01/14 04:33:42;;;;;;;40.42;24.92;;;2.50;99.90;;;1.90;100.00;103043.84;4167060;28;20029;-74
2022/01/14 04:35:43;;;;;;;36.00;21.60;;;2.50;99.90;;;1.92;100.00;103041.19;4183355;28;20032;-74
2022/01/14 04:37:44;;;;;;;32.65;21.88;;;3.10;99.90;;;1.98;100.00;103047.06;4166723;28;20575;-74
2022/01/14 04:39:45;;;;;;;40.00;23.83;;;2.60;99.90;;;2.07;100.00;103041.59;4166532;28;20580;-74
2022/01/14 04:41:46;;;;;;;37.97;24.08;;;3.10;99.90;;;2.08;100.00;103039.84;4150446;28;20029;-74
2022/01/14 04:43:47;;;;;;;37.10;22.90;;;2.80;99.90;;;2.18;100.00;103036.91;4166950;28;20040;-74
2022/01/14 04:47:58;;;;;;;33.28;21.90;;;3.00;99.90;;;2.26;100.00;103035.84;4190050;28;20032;-74
2022/01/14 04:50:00;;;;;;;34.72;22.25;;;2.80;99.90;;;2.03;100.00;103029.56;4157862;28;20025;-74
2022/01/14 04:52:02;;;;;;;36.78;22.40;;;2.70;99.90;;;1.99;100.00;103030.56;4166805;28;20033;-74
2022/01/14 04:54:03;;;;;;;35.35;23.80;;;4.60;99.90;;;1.82;100.00;103014.59;4166591;28;20029;-74
2022/01/14 04:56:05;;;;;;;34.58;21.90;;;2.90;99.90;;;1.89;100.00;103010.91;4166168;28;20080;-74
2022/01/14 04:58:06;;;;;;;39.00;22.63;;;2.70;99.90;;;1.88;100.00;103009.19;4166694;28;20040;-74
2022/01/14 05:00:14;;;;;;;36.70;23.77;;;2.80;99.90;;;1.98;100.00;103008.03;4161181;28;20501;-74
2022/01/14 05:02:16;;;;;;;35.95;23.58;;;2.60;99.90;;;2.00;100.00;103005.41;4155534;28;20025;-74
2022/01/14 05:04:17;;;;;;;36.55;23.98;;;3.20;99.90;;;1.84;100.00;102997.19;4166667;28;20037;-74
2022/01/14 05:06:17;;;;;;;36.08;23.17;;;2.90;99.90;;;1.86;100.00;103008.38;4166309;28;20025;-74
2022/01/14 05:08:23;;;;;;;37.72;22.40;;;3.00;99.90;;;1.81;100.00;103002.47;4167553;28;20045;-74
2022/01/14 05:12:25;;;;;;;34.25;23.33;;;2.60;99.90;;;1.92;100.00;103000.41;4166679;28;20034;-74
2022/01/14 05:14:28;;;;;;;35.53;23.05;;;2.70;99.90;;;1.96;100.00;102996.81;4166310;28;20021;-74
2022/01/14 05:16:29;;;;;;;39.42;25.13;;;2.70;99.90;;;1.74;100.00;103003.53;4136701;28;20117;-74
2022/01/14 05:18:30;;;;;;;37.08;23.17;;;3.80;99.90;;;1.77;100.00;102995.66;4153104;28;20034;-74
2022/01/14 05:20:31;;;;;;;39.30;25.77;;;2.90;99.90;;;1.81;100.00;102989.47;4166630;28;20121;-74
2022/01/14 05:22:32;;;;;;;38.53;23.38;;;3.30;99.90;;;1.84;100.00;102989.38;4175946;28;20057;-74
2022/01/14 05:24:33;;;;;;;38.92;23.50;;;3.10;99.90;;;1.49;100.00;102997.34;4155969;28;20037;-74
2022/01/14 05:26:34;;;;;;;38.05;23.77;;;2.50;99.90;;;1.72;100.00;102997.53;4133141;28;20030;-74
2022/01/14 05:28:35;;;;;;;38.60;23.70;;;1.50;99.90;;;1.80;100.00;103005.97;4157299;28;20515;-74
2022/01/14 05:30:36;;;;;;;37.78;23.05;;;2.50;99.90;;;1.80;100.00;103008.56;4166122;28;20025;-74
2022/01/14 05:32:51;;;;;;;37.33;23.55;;;3.60;99.90;;;1.89;100.00;103005.69;4166149;28;20045;-74
2022/01/14 05:34:52;;;;;;;;;;;2.50;99.90;;;2.02;100.00;103006.19;4166547;28;20033;-74
2022/01/14 05:36:53;;;;;;;38.58;23.73;;;2.60;99.90;;;1.71;100.00;102998.41;4165881;28;19936;-74
2022/01/14 05:38:54;;;;;;;40.00;22.95;;;3.60;99.90;;;1.86;100.00;103004.94;4166232;28;20116;-74
2022/01/14 05:40:55;;;;;;;37.42;23.60;;;3.10;99.90;;;1.81;100.00;103004.22;4166868;28;20025;-74
2022/01/14 05:42:56;;;;;;;38.05;24.17;;;3.70;99.90;;;1.96;100.00;102993.34;4170733;28;20028;-74
2022/01/14 05:44:57;;;;;;;41.15;26.15;;;4.10;99.90;;;2.01;100.00;103007.94;4182457;28;20523;-74
2022/01/14 05:47:00;;;;;;;40.35;23.60;;;1.30;99.90;;;2.01;100.00;103005.34;4159450;28;20033;-74
2022/01/14 05:49:01;;;;;;;40.35;25.00;;;2.80;99.90;;;1.95;100.00;103004.66;4162467;28;20081;-74
2022/01/14 05:51:02;;;;;;;41.10;24.48;;;3.10;99.90;;;2.01;100.00;103004.47;4165842;28;20034;-74
2022/01/14 05:53:06;;;;;;;43.40;24.85;;;5.00;99.90;;;2.08;100.00;103009.47;4166079;28;20444;-74
2022/01/14 05:55:10;;;;;;;40.83;24.30;;;2.80;99.90;;;1.97;100.00;103005.50;4165730;28;20017;-74
2022/01/14 05:57:11;;;;;;;38.92;23.63;;;2.70;99.90;;;2.00;100.00;103008.81;4198674;28;20032;-74
2022/01/14 05:59:12;;;;;;;38.28;23.95;;;3.60;99.90;;;1.79;100.00;103004.28;4165984;28;20067;-74
2022/01/14 06:01:13;;;;;;;44.17;23.95;;;2.70;99.90;;;1.93;100.00;103002.13;4149551;28;20604;-74
2022/01/14 06:03:14;;;;;;;42.95;25.63;;;2.40;99.90;;;1.87;100.00;103006.66;4167189;28;20029;-74
2022/01/14 06:05:16;;;;;;;42.60;25.35;;;2.70;99.90;;;1.71;100.00;102992.38;4165901;28;20085;-74
2022/01/14 06:07:17;;;;;;;41.05;24.30;;;2.80;99.90;;;2.00;100.00;102997.59;4165251;28;20041;-74
2022/01/14 06:09:18;;;;;;;38.95;26.10;;;2.90;99.90;;;2.09;100.00;103000.75;4149152;28;20531;-74
2022/01/14 06:11:19;;;;;;;38.58;23.33;;;1.90;99.90;;;2.16;100.00;103004.88;4165688;28;20137;-74
2022/01/14 06:13:20;;;;;;;42.42;25.67;;;5.30;99.90;;;2.27;100.00;103006.31;4165782;28;20033;-74
2022/01/14 06:15:21;;;;;;;41.22;23.70;;;2.80;99.90;;;1.92;100.00;103007.34;4165749;28;20096;-74
2022/01/14 06:17:23;;;;;;;41.42;24.77;;;1.00;99.90;;;2.00;100.00;103008.81;4158605;28;20463;-74
2022/01/14 06:19:27;;;;;;;45.40;26.42;;;2.90;99.90;;;2.02;100.00;103006.19;4149490;28;20045;-74
2022/01/14 06:21:28;;;;;;;41.57;25.30;;;2.80;99.90;;;2.02;100.00;103007.03;4162491;28;20092;-74
2022/01/14 06:23:29;;;;;;;41.58;24.77;;;2.60;99.90;;;2.18;100.00;103004.84;4149542;28;20533;-74
2022/01/14 06:25:30;;;;;;;39.90;25.63;;;3.00;99.90;;;2.03;100.00;103007.91;4150395;28;20036;-74
2022/01/14 06:27:32;;;;;;;49.58;29.70;;;3.30;99.90;;;1.89;100.00;103010.03;4149186;28;20030;-74
2022/01/14 06:29:34;;;;;;;50.15;27.63;;;2.70;99.90;;;1.87;100.00;103017.06;4149189;28;20042;-74
2022/01/14 06:31:34;;;;;;;48.50;30.13;;;2.60;99.90;;;1.91;100.00;103000.47;4158133;28;20043;-74
2022/01/14 06:33:35;;;;;;;40.83;25.75;;;1.60;99.90;;;2.05;100.00;103012.16;4171368;28;20050;-74
2022/01/14 06:35:36;;;;;;;40.20;24.95;;;3.20;99.90;;;2.13;100.00;103011.91;4152318;28;20045;-74
2022/01/14 06:37:38;;;;;;;45.80;26.75;;;1.50;99.90;;;2.11;100.00;103011.97;4152724;28;20032;-74
2022/01/14 06:39:39;;;;;;;39.25;24.60;;;2.60;99.90;;;2.11;100.00;103011.97;4168309;28;20026;-74
2022/01/14 06:41:40;;;;;;;40.10;24.65;;;3.00;99.90;;;2.17;100.00;103003.97;4168553;28;20412;-74
2022/01/14 06:43:41;;;;;;;41.50;24.27;;;2.90;99.90;;;2.12;100.00;103012.84;4168499;28;20072;-74
2022/01/14 06:45:42;;;;;;;41.30;24.20;;;2.80;99.90;;;2.09;100.00;103016.34;4168524;28;20033;-74
2022/01/14 06:47:43;;;;;;;41.55;26.67;;;2.70;99.90;;;2.15;100.00;103018.78;4165626;28;20033;-74
2022/01/14 06:49:44;;;;;;;42.55;26.15;;;3.20;99.90;;;2.20;100.00;103013.44;4162827;28;20026;-74
2022/01/14 06:51:45;;;;;;;42.67;26.23;;;2.70;99.90;;;2.12;100.00;103023.25;4162091;28;20021;-74
2022/01/14 06:53:46;;;;;;;35.97;23.92;;;2.00;99.90;;;2.10;100.00;103020.69;4169700;28;20036;-74
2022/01/14 06:55:47;;;;;;;40.17;24.20;;;2.90;99.90;;;2.12;100.00;103020.66;4167985;28;20026;-74
2022/01/14 06:57:48;;;;;;;41.05;24.75;;;3.10;99.90;;;2.17;100.00;103022.22;4167986;28;20370;-74
2022/01/14 06:59:49;;;;;;;40.33;25.95;;;2.30;99.90;;;2.30;100.00;103027.03;4168247;28;20101;-74
2022/01/14 07:01:50;;;;;;;40.90;24.88;;;3.40;99.90;;;2.36;100.00;103026.84;4168237;28;20025;-74
2022/01/14 07:03:50;;;;;;;37.85;24.83;;;3.00;99.90;;;2.31;100.00;103036.53;4168187;28;20072;-74
2022/01/14 07:05:51;;;;;;;39.88;25.90;;;3.10;99.90;;;2.22;100.00;103030.72;4151745;28;20026;-74
2022/01/14 07:07:52;;;;;;;40.08;24.38;;;3.00;99.90;;;2.27;100.00;103027.13;4168953;28;20044;-74
2022/01/14 07:09:57;;;;;;;39.92;24.80;;;3.10;99.90;;;2.39;100.00;103031.97;4167880;28;20409;-74
2022/01/14 07:12:00;;;;;;;39.97;25.50;;;2.90;99.90;;;2.43;100.00;103029.19;4178952;28;20432;-74
2022/01/14 07:14:01;;;;;;;39.00;25.52;;;3.00;99.90;;;2.33;100.00;103032.16;4153128;28;20037;-74
2022/01/14 07:16:03;;;;;;;43.35;26.05;;;3.10;99.90;;;2.28;100.00;103044.44;4155713;28;20366;-74
2022/01/14 07:18:04;;;;;;;45.47;26.75;;;3.20;99.90;;;2.11;100.00;103047.56;4135287;28;20418;-74
2022/01/14 07:20:11;;;;;;;46.67;26.63;;;3.40;99.90;;;2.26;100.00;103047.09;4138281;28;20026;-74
2022/01/14 07:22:13;;;;;;;67.22;32.78;;;3.80;99.90;;;2.32;100.00;103040.84;4160470;28;20034;-74
2022/01/14 07:24:15;;;;;;;57.33;29.40;;;4.80;99.90;;;2.31;100.00;103039.13;4151391;28;20045;-74
2022/01/14 07:26:16;;;;;;;51.08;28.85;;;3.80;99.90;;;2.17;100.00;103043.03;4153349;28;20493;-74
2022/01/14 07:28:17;;;;;;;57.10;31.20;;;2.80;99.90;;;2.08;100.00;103048.50;4167708;28;20030;-73
2022/01/14 07:30:18;;;;;;;60.80;31.45;;;1.80;99.90;;;1.98;100.00;103054.88;4151366;28;20441;-74
2022/01/14 07:32:19;;;;;;;49.40;27.10;;;2.90;99.90;;;2.12;100.00;103054.50;4167416;28;20033;-74
2022/01/14 07:34:20;;;;;;;53.15;28.83;;;2.90;99.90;;;2.05;100.00;103053.81;4167679;28;20488;-74
2022/01/14 07:36:22;;;;;;;43.03;26.45;;;2.90;99.90;;;2.11;100.00;103048.44;4167618;28;20132;-74
2022/01/14 07:38:23;;;;;;;44.40;27.13;;;3.00;99.90;;;2.10;100.00;103051.91;4167738;28;20034;-74
2022/01/14 07:40:24;;;;;;;52.00;28.52;;;3.10;99.90;;;2.13;100.00;103051.81;4165474;28;20061;-74
2022/01/14 07:42:25;;;;;;;46.85;27.60;;;2.80;99.90;;;2.22;100.00;103048.09;4168440;28;20501;-74
2022/01/14 07:44:26;;;;;;;42.42;26.05;;;2.90;99.90;;;2.22;100.00;103055.91;4150281;28;20084;-74
2022/01/14 07:46:27;;;;;;;52.83;30.83;;;2.90;99.90;;;2.10;100.00;103045.84;4150837;28;20034;-74
2022/01/14 07:48:28;;;;;;;48.30;28.75;;;2.90;99.90;;;2.30;100.00;103058.28;4175708;28;20405;-74
2022/01/14 07:50:29;;;;;;;42.20;27.05;;;2.90;99.90;;;2.30;100.00;103056.50;4167474;28;20029;-74
2022/01/14 07:52:30;;;;;;;45.03;28.23;;;3.10;99.90;;;2.36;100.00;103061.53;4168460;28;20030;-74
2022/01/14 07:54:31;;;;;;;52.08;27.60;;;3.10;99.90;;;2.46;100.00;103054.28;4167181;28;20029;-75
2022/01/14 07:56:45;;;;;;;44.85;28.00;;;3.40;99.90;;;2.54;100.00;103054.94;4167058;28;20083;-75
2022/01/14 07:58:46;;;;;;;45.25;26.55;;;3.20;99.90;;;2.44;100.00;103050.91;4167818;28;20037;-75
2022/01/14 08:00:47;;;;;;;39.25;24.90;;;3.30;99.90;;;2.57;100.00;103047.03;4147561;28;20132;-75
2022/01/14 08:02:48;;;;;;;37.80;23.15;;;3.20;99.90;;;2.39;100.00;103048.41;4157482;28;20108;-75
2022/01/14 08:04:49;;;;;;;36.67;24.35;;;4.10;99.90;;;2.33;100.00;103038.19;4167324;28;20033;-75
2022/01/14 08:06:52;;;;;;;35.30;23.90;;;2.70;99.90;;;2.29;100.00;103038.34;4166981;28;20093;-75
2022/01/14 08:08:53;;;;;;;41.45;25.05;;;4.10;99.90;;;2.32;100.00;103051.28;4166963;28;20037;-75
2022/01/14 08:10:55;;;;;;;44.88;25.15;;;3.10;99.90;;;2.06;100.00;103055.50;4166962;28;20037;-75
2022/01/14 08:12:56;;;;;;;43.72;25.60;;;3.00;99.90;;;1.98;100.00;103038.41;4168313;28;20026;-75
2022/01/14 08:14:58;;;;;;;38.42;24.27;;;2.90;99.90;;;1.99;100.00;103054.00;4167652;28;20075;-75
2022/01/14 08:16:59;;;;;;;42.38;25.25;;;3.00;99.90;;;2.05;100.00;103046.00;4150519;28;20109;-75
2022/01/14 08:19:00;;;;;;;43.35;24.13;;;2.80;99.90;;;2.07;100.00;103044.19;4150659;28;20034;-75
2022/01/14 08:21:01;;;;;;;37.65;23.40;;;-0.40;99.90;;;2.10;100.00;103049.31;4162222;28;20061;-75
2022/01/14 08:23:02;;;;;;;37.33;22.67;;;3.20;99.90;;;1.81;100.00;103038.91;4163334;28;20039;-75
2022/01/14 08:25:04;;;;;;;45.53;24.98;;;2.70;99.90;;;1.90;100.00;103049.06;4177619;28;20030;-74
2022/01/14 08:27:08;;;;;;;43.22;24.88;;;2.90;99.90;;;1.92;100.00;103049.00;4164496;28;20064;-75
2022/01/14 08:29:09;;;;;;;42.08;24.77;;;0.60;99.90;;;1.90;100.00;103049.06;4162757;28;20049;-75
2022/01/14 08:31:10;;;;;;;42.88;26.25;;;3.10;99.90;;;1.75;100.00;103043.41;4151319;28;20514;-75
2022/01/14 08:33:12;;;;;;;37.03;22.58;;;2.60;99.90;;;1.66;100.00;103052.34;4166675;28;20030;-75
2022/01/14 08:35:13;;;;;;;39.30;23.08;;;2.70;99.90;;;1.62;100.00;103041.16;4166783;28;20087;-75
2022/01/14 08:37:14;;;;;;;39.05;24.30;;;2.50;99.90;;;1.73;100.00;103034.81;4166560;28;20505;-75
2022/01/14 08:39:16;;;;;;;34.55;22.33;;;2.10;99.90;;;1.80;100.00;103047.59;4166170;28;20034;-75
2022/01/14 08:41:19;;;;;;;37.70;23.17;;;2.60;99.90;;;1.81;100.00;103049.31;4166673;28;20037;-75
2022/01/14 08:43:20;;;;;;;35.75;23.70;;;2.60;99.90;;;1.75;100.00;103046.88;4166562;28;20033;-75
2022/01/14 08:45:21;;;;;;;37.83;23.80;;;2.70;99.90;;;1.75;100.00;103044.28;4167782;28;20040;-75